Time;durP1;ratioP1;P1;durP2;ratioP2;P2;SDS_P1;SDS_P2;PMS_P1;PMS_P2;Temp;Humidity;BMP_temperature;BMP_pressure;BME280_temperature;BME280_humidity;BME280_pressure;Samples;Min_cycle;Max_cycle;Signal;HPM_P1;HPM_P2
2024/03/31 00:00:33;;;;;;;28.52;27.02;;;;;;;9.76;100.00;100885.19;5047704;28;20566;-72
2024/03/31 00:03:00;;;;;;;31.25;29.55;;;;;;;9.52;100.00;100889.94;5047516;28;20049;-71
2024/03/31 00:05:26;;;;;;;32.50;30.80;;;;;;;9.53;100.00;100874.84;5048016;28;20053;-72
2024/03/31 00:07:53;;;;;;;32.30;30.42;;;;;;;9.57;100.00;100881.41;5039914;28;20580;-71
2024/03/31 00:10:19;;;;;;;28.98;27.27;;;;;;;9.60;100.00;100873.88;5047806;28;20076;-72
2024/03/31 00:12:46;;;;;;;29.45;27.70;;;;;;;9.51;100.00;100876.88;5045940;28;20073;-71
2024/03/31 00:15:14;;;;;;;28.08;26.45;;;;;;;9.27;100.00;100873.66;5047912;28;20762;-72
2024/03/31 00:17:41;;;;;;;28.10;26.50;;;;;;;9.54;100.00;100873.84;5046331;28;20056;-71
2024/03/31 00:20:07;;;;;;;32.15;30.17;;;;;;;8.94;100.00;100881.38;5046343;28;20061;-72
2024/03/31 00:22:34;;;;;;;30.08;28.38;;;;;;;9.30;100.00;100878.59;5045269;28;20045;-71
2024/03/31 00:25:01;;;;;;;30.38;28.77;;;;;;;9.41;100.00;100879.91;5045216;28;20061;-72
2024/03/31 00:27:28;;;;;;;25.10;23.70;;;;;;;9.34;100.00;100876.34;5046953;28;20056;-71
2024/03/31 00:29:55;;;;;;;28.05;26.35;;;;;;;9.22;100.00;100873.41;5046617;28;20137;-71
2024/03/31 00:32:23;;;;;;;26.33;24.83;;;;;;;9.24;100.00;100870.59;5046814;28;20063;-71
2024/03/31 00:34:50;;;;;;;31.77;29.88;;;;;;;9.25;100.00;100874.88;5046605;28;20052;-71
2024/03/31 00:37:17;;;;;;;32.25;29.23;;;;;;;9.24;100.00;100867.94;5046605;28;20045;-71
2024/03/31 00:39:43;;;;;;;30.17;28.48;;;;;;;9.11;100.00;100873.97;5045793;28;20056;-71
2024/03/31 00:42:10;;;;;;;28.10;25.55;;;;;;;9.21;100.00;100878.94;5046723;28;20049;-71
2024/03/31 00:44:36;;;;;;;31.05;29.35;;;;;;;9.33;100.00;100872.09;5044479;28;20114;-71
2024/03/31 00:47:03;;;;;;;30.67;28.98;;;;;;;9.28;100.00;100872.66;5046902;28;20111;-70
2024/03/31 00:49:31;;;;;;;29.50;27.83;;;;;;;9.42;100.00;100870.91;5038414;28;20049;-70
2024/03/31 00:51:58;;;;;;;28.58;26.98;;;;;;;9.13;100.00;100870.09;5037355;28;20063;-71
2024/03/31 00:54:26;;;;;;;29.27;27.60;;;;;;;9.07;100.00;100870.03;5046478;28;20522;-71
2024/03/31 00:56:53;;;;;;;30.80;29.13;;;;;;;9.19;100.00;100871.16;5046176;28;20060;-71
2024/03/31 00:59:19;;;;;;;28.75;27.15;;;;;;;8.73;100.00;100871.59;5047255;28;20102;-71
2024/03/31 01:01:46;;;;;;;30.10;28.40;;;;;;;8.80;100.00;100875.13;5038523;28;20057;-71
2024/03/31 01:04:12;;;;;;;31.75;29.95;;;;;;;8.87;100.00;100878.66;5046474;28;20402;-71
2024/03/31 01:06:41;;;;;;;29.45;27.77;;;;;;;8.82;100.00;100874.94;5033190;28;20123;-70
2024/03/31 01:09:07;;;;;;;30.20;28.40;;;;;;;8.60;100.00;100880.25;5050501;28;20115;-71
2024/03/31 01:11:35;;;;;;;29.60;27.95;;;;;;;8.75;100.00;100879.38;5045963;28;20447;-71
2024/03/31 01:14:03;;;;;;;31.08;29.38;;;;;;;8.66;100.00;100881.31;5050326;28;20103;-71
2024/03/31 01:16:30;;;;;;;30.45;28.67;;;;;;;8.79;100.00;100884.09;5049599;28;20052;-71
2024/03/31 01:18:57;;;;;;;33.30;31.40;;;;;;;8.72;100.00;100880.56;5049925;28;20102;-71
2024/03/31 01:21:27;;;;;;;32.25;29.27;;;;;;;8.18;100.00;100886.28;5050441;28;20075;-71
2024/03/31 01:23:57;;;;;;;32.55;30.65;;;;;;;8.49;100.00;100891.31;5050237;28;20103;-71
2024/03/31 01:26:24;;;;;;;31.30;29.30;;;;;;;8.69;100.00;100894.19;5051069;28;20080;-71
2024/03/31 01:28:50;;;;;;;34.00;31.33;;;;;;;8.48;100.00;100892.34;5050853;28;20057;-71
2024/03/31 01:31:17;;;;;;;30.40;28.70;;;;;;;8.76;100.00;100899.53;5047089;28;20053;-71
2024/03/31 01:33:43;;;;;;;29.90;28.30;;;;;;;8.78;100.00;100894.88;5045945;28;20045;-72
2024/03/31 01:36:11;;;;;;;27.80;26.20;;;;;;;8.57;100.00;100901.00;5049817;28;20550;-72
2024/03/31 01:38:37;;;;;;;29.73;28.02;;;;;;;8.59;100.00;100904.25;5051134;28;20425;-72
2024/03/31 01:41:05;;;;;;;30.77;28.98;;;;;;;8.56;100.00;100905.44;5051340;28;20048;-73
2024/03/31 01:43:31;;;;;;;30.02;28.33;;;;;;;8.53;100.00;100907.66;5050808;28;20044;-72
2024/03/31 01:45:58;;;;;;;27.20;25.70;;;;;;;8.37;100.00;100906.03;5051259;28;20513;-72
2024/03/31 01:48:25;;;;;;;31.25;28.33;;;;;;;8.30;100.00;100905.13;5050554;28;20132;-73
2024/03/31 01:50:52;;;;;;;33.70;31.80;;;;;;;8.19;100.00;100909.88;5045677;28;20098;-72
2024/03/31 01:53:20;;;;;;;35.00;33.13;;;;;;;8.19;100.00;100917.81;5043583;28;20657;-73
2024/03/31 01:55:47;;;;;;;30.85;29.15;;;;;;;8.20;100.00;100911.56;5050304;28;20064;-72
2024/03/31 01:58:14;;;;;;;33.40;31.50;;;;;;;8.31;100.00;100917.34;5049727;28;20056;-73
2024/03/31 02:00:41;;;;;;;37.10;34.90;;;;;;;8.27;100.00;100920.38;5050368;28;20560;-72
2024/03/31 02:03:07;;;;;;;36.22;34.33;;;;;;;8.16;100.00;100914.72;5049858;28;20041;-72
2024/03/31 02:05:35;;;;;;;31.35;29.65;;;;;;;7.97;100.00;100926.72;5059339;22;20076;-71
2024/03/31 02:08:01;;;;;;;33.30;31.40;;;;;;;8.19;100.00;100922.31;5062126;28;20052;-72
2024/03/31 02:10:28;;;;;;;31.73;30.00;;;;;;;8.04;100.00;100927.59;5067691;28;20087;-72
2024/03/31 02:12:54;;;;;;;35.83;33.83;;;;;;;8.01;100.00;100926.16;5056604;28;20064;-72
2024/03/31 02:15:22;;;;;;;32.88;31.08;;;;;;;7.95;100.00;100923.41;5069283;28;20069;-72
2024/03/31 04:05:18;;;;;;;30.63;28.73;;;;;;;8.88;100.00;100982.78;4995314;28;20061;-70
2024/03/31 04:07:46;;;;;;;37.20;35.05;;;;;;;8.48;100.00;100979.69;4995222;28;20059;-72
2024/03/31 04:10:13;;;;;;;47.03;44.22;;;;;;;8.65;100.00;100981.13;4993167;28;20059;-72
2024/03/31 04:12:40;;;;;;;45.20;42.55;;;;;;;8.92;100.00;100992.78;5001378;28;20107;-72
2024/03/31 04:15:07;;;;;;;46.10;43.20;;;;;;;8.89;100.00;100993.19;4984774;28;20050;-71
2024/03/31 04:17:34;;;;;;;46.30;43.50;;;;;;;9.18;100.00;101004.69;4999156;28;20164;-71
2024/03/31 04:20:02;;;;;;;29.23;27.30;;;;;;;9.32;100.00;100995.84;4992969;28;20100;-71
2024/03/31 04:22:30;;;;;;;27.85;26.25;;;;;;;9.48;100.00;101002.72;4991599;28;20057;-72
2024/03/31 04:24:57;;;;;;;28.40;26.70;;;;;;;9.43;100.00;100999.81;4995890;28;20058;-72
2024/03/31 04:27:23;;;;;;;28.92;26.95;;;;;;;9.40;100.00;100997.53;4998406;28;20069;-71
2024/03/31 04:29:50;;;;;;;28.60;26.90;;;;;;;9.58;100.00;101000.53;4996009;28;20137;-72
2024/03/31 04:32:16;;;;;;;26.95;25.35;;;;;;;9.65;100.00;100995.28;4991630;28;20093;-72
2024/03/31 04:34:43;;;;;;;29.17;27.20;;;;;;;9.82;100.00;100995.81;4992085;28;20062;-72
2024/03/31 04:37:10;;;;;;;30.85;28.85;;;;;;;9.98;100.00;100998.16;4991983;28;20054;-71
2024/03/31 04:39:38;;;;;;;30.52;28.73;;;;;;;10.07;100.00;100996.97;4996186;28;20066;-70
2024/03/31 04:42:04;;;;;;;29.48;27.67;;;;;;;10.11;100.00;101001.94;5000187;28;20118;-71
2024/03/31 04:44:33;;;;;;;27.55;25.85;;;;;;;10.19;100.00;100999.91;4987789;28;20047;-72
2024/03/31 04:46:59;;;;;;;28.52;26.83;;;;;;;9.95;100.00;101000.38;4984680;28;20050;-72
2024/03/31 04:49:26;;;;;;;31.35;29.45;;;;;;;10.21;100.00;100995.22;5085683;28;20184;-70
2024/03/31 04:51:52;;;;;;;33.38;30.60;;;;;;;10.19;100.00;101001.75;5040544;28;20922;-71
2024/03/31 04:54:20;;;;;;;29.20;27.50;;;;;;;10.34;100.00;101001.66;4994739;28;20058;-71
2024/03/31 04:56:48;;;;;;;30.48;28.55;;;;;;;10.71;100.00;100998.53;4992426;28;20516;-72
2024/03/31 04:59:15;;;;;;;27.75;26.05;;;;;;;10.85;100.00;101007.34;4990892;28;20051;-72
2024/03/31 05:01:41;;;;;;;26.85;25.17;;;;;;;11.04;100.00;100999.63;4997958;28;20107;-72
2024/03/31 05:04:08;;;;;;;30.27;28.48;;;;;;;11.12;100.00;101005.56;5018678;28;20050;-71
2024/03/31 05:06:36;;;;;;;28.67;26.88;;;;;;;11.29;100.00;101007.84;4989870;28;20114;-70
2024/03/31 05:09:03;;;;;;;26.30;24.70;;;;;;;11.34;100.00;101011.50;4983271;28;20069;-71
2024/03/31 05:11:30;;;;;;;25.33;23.73;;;;;;;11.46;100.00;101012.53;4994335;28;20516;-72
2024/03/31 05:13:59;;;;;;;26.30;24.38;;;;;;;11.54;100.00;101013.38;4986439;28;20054;-72
2024/03/31 05:16:26;;;;;;;27.02;25.33;;;;;;;11.69;100.00;101020.13;4991217;28;20142;-72
2024/03/31 05:18:53;;;;;;;27.90;26.10;;;;;;;11.77;100.00;101015.59;4993907;28;20046;-72
2024/03/31 05:21:21;;;;;;;30.85;28.80;;;;;;;11.94;100.00;101019.50;5000274;28;20591;-71
2024/03/31 05:23:47;;;;;;;29.38;26.83;;;;;;;12.00;100.00;101025.84;5018162;28;20715;-71
2024/03/31 05:26:15;;;;;;;28.60;26.80;;;;;;;12.24;100.00;101027.03;4991304;28;20053;-72
2024/03/31 05:28:41;;;;;;;28.27;26.48;;;;;;;12.41;100.00;101027.41;4999522;28;20513;-71
2024/03/31 05:31:10;;;;;;;28.50;26.77;;;;;;;12.32;100.00;101021.47;4990420;28;20059;-71
2024/03/31 05:33:36;;;;;;;26.95;25.25;;;;;;;12.41;100.00;101016.75;5000973;28;20115;-71
2024/03/31 05:36:03;;;;;;;27.10;25.40;;;;;;;12.53;100.00;101020.38;4997745;28;20050;-71
2024/03/31 05:38:29;;;;;;;28.10;26.30;;;;;;;12.81;100.00;101022.72;4998541;28;20062;-70
2024/03/31 05:40:56;;;;;;;44.45;28.90;;;;;;;12.82;100.00;101019.81;4993332;28;20576;-70
2024/03/31 05:43:23;;;;;;;28.58;26.67;;;;;;;12.86;100.00;101024.72;4984239;28;20471;-71
2024/03/31 05:45:50;;;;;;;29.10;27.20;;;;;;;13.04;100.00;101023.00;4992326;28;20053;-71
2024/03/31 05:48:20;;;;;;;30.20;28.25;;;;;;;13.12;100.00;101026.44;5004646;28;20080;-71
2024/03/31 05:50:47;;;;;;;28.42;26.63;;;;;;;13.25;100.00;101024.53;5007884;28;20048;-70
2024/03/31 05:53:14;;;;;;;29.98;27.90;;;;;;;13.52;100.00;101027.81;4993363;28;20794;-71
2024/03/31 05:55:42;;;;;;;28.55;26.75;;;;;;;13.51;100.00;101034.16;5003055;28;20050;-71
2024/03/31 05:58:07;;;;;;;29.02;27.13;;;;;;;13.75;100.00;101024.53;4996180;28;20058;-71
2024/03/31 06:00:35;;;;;;;27.30;25.60;;;;;;;13.89;100.00;101027.09;4988398;28;20050;-71
2024/03/31 06:03:01;;;;;;;26.92;25.23;;;;;;;13.95;100.00;101029.69;5000774;28;20046;-71
2024/03/31 06:05:29;;;;;;;25.58;23.98;;;;;;;14.25;100.00;101028.97;4995488;28;20111;-71
2024/03/31 06:07:55;;;;;;;25.02;23.33;;;;;;;14.19;100.00;101028.00;5002783;28;20118;-72
2024/03/31 06:10:22;;;;;;;29.00;27.10;;;;;;;14.59;100.00;101022.22;4990090;28;20052;-71
2024/03/31 06:12:49;;;;;;;29.75;27.83;;;;;;;14.40;100.00;101028.56;4997233;28;20135;-71
2024/03/31 06:15:16;;;;;;;28.77;26.90;;;;;;;14.77;100.00;101025.91;4999412;28;20085;-72
2024/03/31 06:17:42;;;;;;;26.98;25.17;;;;;;;14.91;100.00;101030.03;5001968;28;20501;-72
2024/03/31 06:20:10;;;;;;;27.48;25.67;;;;;;;15.14;100.00;101033.84;4997583;28;20273;-72
2024/03/31 06:22:40;;;;;;;42.95;26.77;;;;;;;15.48;100.00;101033.09;4996281;28;20054;-72
2024/03/31 06:25:08;;;;;;;31.33;28.92;;;;;;;15.47;100.00;101036.00;4993863;28;20068;-71
2024/03/31 06:27:34;;;;;;;29.63;27.73;;;;;;;15.52;100.00;101036.09;4996359;28;20054;-71
2024/03/31 06:30:02;;;;;;;29.67;27.67;;;;;;;15.86;100.00;101047.13;5001836;28;20413;-71
2024/03/31 06:32:28;;;;;;;31.77;29.67;;;;;;;16.27;100.00;101041.59;4992475;28;20054;-71
2024/03/31 06:34:55;;;;;;;31.10;29.00;;;;;;;16.52;100.00;101039.69;5011136;28;20045;-70
2024/03/31 06:37:21;;;;;;;33.72;31.23;;;;;;;16.42;100.00;101040.31;5001605;28;20136;-71
2024/03/31 06:39:50;;;;;;;33.05;30.80;;;;;;;16.64;100.00;101044.00;4991217;28;20054;-71
2024/03/31 06:42:16;;;;;;;34.17;31.77;;;;;;;16.84;100.00;101050.81;4998673;28;20062;-70
2024/03/31 06:44:45;;;;;;;31.65;29.45;;;;;;;17.03;100.00;101056.81;5000918;28;20054;-71
2024/03/31 06:47:11;;;;;;;33.38;30.48;;;;;;;17.15;100.00;101042.25;5005304;28;20111;-71
2024/03/31 06:49:39;;;;;;;30.75;28.65;;;;;;;17.42;100.00;101046.22;5001679;28;20058;-71
2024/03/31 06:52:05;;;;;;;31.08;28.98;;;;;;;17.61;100.00;101047.63;4994009;28;20057;-71
2024/03/31 06:54:32;;;;;;;33.38;30.98;;;;;;;17.90;100.00;101053.72;4997051;28;20049;-71
2024/03/31 06:57:00;;;;;;;32.83;30.63;;;;;;;18.00;100.00;101048.50;4989449;28;20104;-71
2024/03/31 06:59:27;;;;;;;31.90;29.60;;;;;;;18.03;100.00;101049.84;4989676;28;20520;-72
2024/03/31 07:01:53;;;;;;;32.38;30.20;;;;;;;18.26;100.00;101052.34;4991631;28;20057;-71
2024/03/31 07:04:21;;;;;;;34.42;32.20;;;;;;;18.51;100.00;101048.34;5000381;28;20130;-71
2024/03/31 07:06:49;;;;;;;32.80;30.60;;;;;;;18.72;100.00;101052.88;5000448;28;20723;-71
2024/03/31 07:09:16;;;;;;;37.13;34.72;;;;;;;19.13;100.00;101047.97;4996500;28;20060;-71
2024/03/31 07:11:42;;;;;;;33.58;31.27;;;;;;;19.15;100.00;101048.56;4995001;28;20054;-71
2024/03/31 07:14:11;;;;;;;32.70;30.40;;;;;;;19.33;100.00;101055.41;5001173;28;20554;-72
2024/03/31 07:16:37;;;;;;;30.73;28.63;;;;;;;19.51;100.00;101059.59;5003244;28;20135;-71
2024/03/31 07:19:04;;;;;;;33.33;30.98;;;;;;;19.65;100.00;101057.34;4991297;28;20087;-72
2024/03/31 07:21:30;;;;;;;31.38;29.17;;;;;;;19.56;100.00;101056.97;5046034;28;20050;-71
2024/03/31 07:23:57;;;;;;;32.03;29.73;;;;;;;19.61;100.00;101058.91;4988160;28;20149;-71
2024/03/31 07:26:23;;;;;;;30.88;28.58;;;;;;;19.55;100.00;101057.25;5001272;28;20095;-71
2024/03/31 07:28:50;;;;;;;32.33;29.70;;;;;;;20.18;100.00;101057.41;5001468;28;20058;-70
2024/03/31 07:31:18;;;;;;;32.45;29.83;;;;;;;20.72;100.00;101052.53;5044829;28;20062;-71
2024/03/31 07:33:45;;;;;;;31.50;29.20;;;;;;;19.90;100.00;101060.19;5001248;28;20068;-71
2024/03/31 07:36:11;;;;;;;32.70;30.02;;;;;;;20.30;100.00;101058.00;4998293;28;20053;-71
2024/03/31 07:38:38;;;;;;;35.13;32.40;;;;;;;20.79;100.00;101065.78;5008844;28;20753;-72
2024/03/31 07:41:04;;;;;;;34.28;31.88;;;;;;;20.87;100.00;101064.44;5003483;28;20058;-72
2024/03/31 07:43:31;;;;;;;31.67;29.48;;;;;;;19.83;100.00;101064.19;4989575;28;20119;-72
2024/03/31 07:45:57;;;;;;;32.00;29.60;;;;;;;20.19;100.00;101065.22;5004670;28;20054;-71
2024/03/31 07:48:26;;;;;;;38.47;35.97;;;;;;;20.08;100.00;101063.53;5001190;28;20471;-71
2024/03/31 07:50:52;;;;;;;37.30;34.90;;;;;;;19.66;100.00;101061.66;4983974;28;20058;-71
2024/03/31 07:53:19;;;;;;;36.35;33.95;;;;;;;19.53;100.00;101064.75;4994863;28;20088;-69
2024/03/31 07:55:45;;;;;;;33.50;31.20;;;;;;;20.08;100.00;101058.16;4997161;28;20050;-72
2024/03/31 07:58:12;;;;;;;36.92;34.05;;;;;;;20.45;100.00;101054.56;5046454;28;20075;-71
2024/03/31 08:00:38;;;;;;;47.85;44.88;;;;;;;21.22;100.00;101045.63;5030643;28;20491;-71
2024/03/31 08:03:05;;;;;;;43.55;40.75;;;;;;;21.54;100.00;101049.97;5014790;28;20089;-71
2024/03/31 08:05:33;;;;;;;31.92;29.63;;;;;;;21.28;100.00;101041.03;4994066;28;20045;-70
2024/03/31 08:08:01;;;;;;;32.17;29.80;;;;;;;21.51;100.00;101042.41;5000398;28;20057;-71
2024/03/31 08:10:27;;;;;;;34.17;31.67;;;;;;;21.57;100.00;101035.91;5061971;28;20066;-69
2024/03/31 08:12:54;;;;;;;36.75;33.95;;;;;;;22.46;100.00;101035.44;4996714;28;20054;-70
2024/03/31 08:15:20;;;;;;;38.95;36.08;;;;;;;22.91;85.56;101042.50;4993912;28;20070;-70
2024/03/31 08:17:48;;;;;;;39.05;36.15;;;;;;;22.52;100.00;101039.75;4997638;28;20058;-70
2024/03/31 08:20:14;;;;;;;38.00;34.53;;;;;;;21.54;100.00;101035.63;4990089;28;20062;-70
2024/03/31 08:22:43;;;;;;;37.22;34.33;;;;;;;20.58;100.00;101035.22;4994603;28;20049;-70
2024/03/31 08:25:09;;;;;;;38.50;35.40;;;;;;;21.61;100.00;101028.88;4990336;28;20050;-70
2024/03/31 08:27:36;;;;;;;37.70;34.80;;;;;;;21.84;100.00;101024.78;4993824;28;20053;-71
2024/03/31 08:30:02;;;;;;;40.15;37.15;;;;;;;22.96;83.84;101017.31;4994356;28;20057;-71
2024/03/31 08:32:29;;;;;;;37.42;34.53;;;;;;;23.61;83.71;101022.50;4999050;28;20064;-70
2024/03/31 08:34:55;;;;;;;38.88;35.88;;;;;;;23.47;90.79;101016.91;5032630;28;20046;-71
2024/03/31 08:37:22;;;;;;;38.75;35.95;;;;;;;21.75;100.00;101018.31;4992248;28;20111;-70
2024/03/31 08:39:50;;;;;;;41.33;38.33;;;;;;;22.79;100.00;101004.13;4998231;28;20058;-70
2024/03/31 08:42:22;;;;;;;39.15;36.25;;;;;;;22.76;100.00;101016.34;5034851;28;20491;-69
2024/03/31 08:44:50;;;;;;;39.80;36.95;;;;;;;21.04;100.00;101019.94;5021395;28;20054;-70
2024/03/31 08:47:25;;;;;;;40.20;37.30;;;;;;;20.95;100.00;101020.75;5079194;28;20527;-71
2024/03/31 08:49:52;;;;;;;41.50;38.60;;;;;;;22.48;99.11;101019.72;5025794;28;20429;-71
2024/03/31 08:52:19;;;;;;;41.13;38.13;;;;;;;22.22;100.00;101022.56;4992116;28;20054;-70
2024/03/31 08:54:46;;;;;;;40.72;37.83;;;;;;;20.97;100.00;101015.91;4996396;28;20058;-71
2024/03/31 08:57:14;;;;;;;41.40;38.50;;;;;;;23.90;75.48;101006.19;4992585;28;20057;-70
2024/03/31 08:59:40;;;;;;;40.13;37.15;;;;;;;23.72;83.33;101005.88;4997985;28;20069;-70
2024/03/31 09:02:14;;;;;;;43.90;40.70;;;;;;;22.94;100.00;101000.53;4989745;28;20061;-71
2024/03/31 09:04:41;;;;;;;41.55;38.60;;;;;;;21.48;100.00;101005.94;5032576;28;20045;-70
2024/03/31 09:07:08;;;;;;;41.42;38.22;;;;;;;22.04;100.00;101007.72;4995904;28;20050;-70
2024/03/31 09:09:34;;;;;;;41.25;38.25;;;;;;;22.06;100.00;101004.72;4998178;28;20080;-70
2024/03/31 09:12:01;;;;;;;44.60;41.40;;;;;;;25.38;69.29;100989.78;4991265;28;20057;-71
2024/03/31 09:14:30;;;;;;;40.08;36.88;;;;;;;24.35;77.25;100998.63;5000235;28;20057;-71
2024/03/31 09:16:57;;;;;;;38.50;35.50;;;;;;;24.80;73.15;100985.53;4987487;28;20059;-70
2024/03/31 09:19:24;;;;;;;40.13;37.13;;;;;;;24.30;77.40;100987.81;4992977;28;20053;-71
2024/03/31 09:21:51;;;;;;;42.05;38.95;;;;;;;26.55;58.09;100984.78;4992180;28;20157;-70
2024/03/31 09:24:19;;;;;;;39.65;36.65;;;;;;;26.27;54.78;100981.28;4996905;28;20050;-69
2024/03/31 09:26:46;;;;;;;42.03;38.92;;;;;;;24.09;76.79;100985.38;4996326;28;20079;-70
2024/03/31 09:29:12;;;;;;;40.28;37.28;;;;;;;22.82;100.00;100981.91;4996525;28;20187;-71
2024/03/31 09:31:41;;;;;;;38.53;35.53;;;;;;;23.14;98.36;100973.28;5005020;28;20504;-71
2024/03/31 09:34:07;;;;;;;41.70;38.60;;;;;;;21.59;100.00;100979.69;4993592;28;20062;-70
2024/03/31 09:36:37;;;;;;;42.58;39.47;;;;;;;21.98;100.00;100970.94;4999038;28;20518;-71
2024/03/31 09:39:04;;;;;;;41.75;38.75;;;;;;;22.92;100.00;100965.59;4998454;28;20483;-70
2024/03/31 09:41:31;;;;;;;43.40;40.00;;;;;;;22.03;100.00;100975.50;4991674;28;20093;-70
2024/03/31 09:43:58;;;;;;;42.80;39.50;;;;;;;25.38;77.44;100959.88;4988158;28;20050;-70
2024/03/31 09:46:25;;;;;;;40.67;37.67;;;;;;;26.38;68.56;100966.31;5001697;28;20531;-70
2024/03/31 09:49:07;;;;;;;41.05;37.95;;;;;;;27.30;55.28;100956.00;4989328;28;20054;-70
2024/03/31 09:51:35;;;;;;;42.67;39.33;;;;;;;25.44;72.48;100964.91;4988783;28;20797;-70
2024/03/31 09:54:07;;;;;;;43.97;40.47;;;;;;;27.83;50.26;100955.13;5003801;28;20135;-70
2024/03/31 09:56:40;;;;;;;41.80;38.55;;;;;;;27.14;56.01;100960.19;5000579;28;20062;-70
2024/03/31 09:59:09;;;;;;;42.05;38.95;;;;;;;24.91;86.98;100957.13;5000137;28;20064;-70
2024/03/31 10:01:40;;;;;;;44.38;41.08;;;;;;;28.00;51.87;100954.38;4999379;28;20080;-71
2024/03/31 10:04:15;;;;;;;41.80;38.50;;;;;;;24.40;73.55;100960.56;4986083;28;20058;-69
2024/03/31 10:06:43;;;;;;;41.40;38.20;;;;;;;22.91;96.67;100963.19;4996759;28;20049;-75
2024/03/31 10:09:09;;;;;;;43.70;40.40;;;;;;;24.25;80.80;100960.75;4999834;28;20091;-73
2024/03/31 10:11:37;;;;;;;39.35;36.35;;;;;;;26.54;60.00;100946.94;5002076;28;20058;-71
2024/03/31 10:14:04;;;;;;;39.53;36.53;;;;;;;28.21;52.04;100954.56;4994738;28;20699;-72
2024/03/31 10:16:35;;;;;;;42.20;39.10;;;;;;;26.45;52.89;100960.47;5008666;28;20058;-72
2024/03/31 10:19:02;;;;;;;39.83;36.83;;;;;;;24.12;86.70;100959.56;5074662;28;20062;-72
2024/03/31 10:21:32;;;;;;;42.47;39.38;;;;;;;23.45;98.23;100964.88;4992820;28;20054;-71
2024/03/31 10:24:00;;;;;;;43.10;40.00;;;;;;;25.22;84.75;100967.50;5004813;28;20054;-72
2024/03/31 10:26:28;;;;;;;53.72;50.22;;;;;;;26.71;59.12;100964.22;4996202;28;20779;-73
2024/03/31 10:28:57;;;;;;;43.08;39.95;;;;;;;26.07;66.32;100970.81;4988677;28;20582;-72
2024/03/31 10:31:24;;;;;;;44.22;40.92;;;;;;;24.50;82.73;100965.06;5002700;28;20098;-72
2024/03/31 10:33:50;;;;;;;45.88;42.50;;;;;;;29.11;48.10;100964.06;5002346;28;20528;-72
2024/03/31 10:36:19;;;;;;;47.05;43.60;;;;;;;25.10;71.64;100963.31;5002143;28;20069;-72
2024/03/31 10:38:47;;;;;;;47.50;44.13;;;;;;;26.76;60.76;100966.03;4991027;28;20058;-70
2024/03/31 10:41:14;;;;;;;37.70;34.75;;;;;;;23.76;88.29;100965.41;4989516;28;20103;-71
2024/03/31 10:43:41;;;;;;;37.17;34.20;;;;;;;22.58;100.00;100960.94;5006773;28;20452;-71
2024/03/31 10:46:09;;;;;;;48.45;45.05;;;;;;;21.90;100.00;100958.78;5001863;28;20060;-72
2024/03/31 10:48:35;;;;;;;44.83;41.63;;;;;;;21.50;100.00;100952.41;4999836;28;20579;-74
2024/03/31 10:51:13;;;;;;;43.53;40.33;;;;;;;21.49;100.00;100948.09;5004950;28;20054;-71
2024/03/31 10:53:39;;;;;;;44.05;40.85;;;;;;;23.49;100.00;100945.06;4992756;28;20110;-72
2024/03/31 10:56:08;;;;;;;44.80;41.55;;;;;;;24.02;100.00;100949.63;4987316;28;20077;-72
2024/03/31 10:58:39;;;;;;;46.47;43.20;;;;;;;23.82;100.00;100939.06;5003060;28;20107;-72
2024/03/31 11:01:06;;;;;;;45.58;42.30;;;;;;;28.66;51.70;100929.72;5039443;28;20054;-72
2024/03/31 11:03:33;;;;;;;48.90;45.40;;;;;;;28.97;46.06;100925.97;5002479;28;20835;-72
2024/03/31 11:06:04;;;;;;;52.15;48.15;;;;;;;29.25;42.44;100920.94;4995879;28;20053;-73
2024/03/31 11:08:31;;;;;;;47.17;43.67;;;;;;;27.80;53.35;100927.66;4997395;28;20486;-72
2024/03/31 11:11:02;;;;;;;67.88;63.58;;;;;;;28.39;44.80;100930.03;5032753;28;20054;-72
2024/03/31 11:13:31;;;;;;;46.75;43.33;;;;;;;29.02;43.60;100917.63;5006235;28;20046;-72
2024/03/31 11:15:58;;;;;;;47.97;44.28;;;;;;;27.37;54.85;100920.09;5002321;28;20065;-71
2024/03/31 11:18:24;;;;;;;54.15;50.38;;;;;;;27.84;48.30;100912.28;4991566;28;20057;-71
2024/03/31 11:20:52;;;;;;;53.78;49.97;;;;;;;27.11;59.07;100909.84;5004236;28;20057;-72
2024/03/31 11:23:18;;;;;;;51.58;47.97;;;;;;;28.16;46.54;100915.69;4986014;28;20058;-72
2024/03/31 11:25:46;;;;;;;58.22;54.33;;;;;;;28.57;48.79;100909.00;5001687;28;20140;-72
2024/03/31 11:28:13;;;;;;;53.83;50.13;;;;;;;27.24;54.88;100908.19;5005458;28;20053;-72
2024/03/31 11:30:44;;;;;;;49.30;45.80;;;;;;;27.88;53.22;100907.00;4993584;28;20054;-73
2024/03/31 11:33:12;;;;;;;47.38;43.97;;;;;;;27.89;47.26;100898.47;4996772;28;20049;-73
2024/03/31 11:35:40;;;;;;;50.10;46.45;;;;;;;29.22;47.16;100895.03;4999499;28;20052;-72
2024/03/31 11:38:13;;;;;;;50.90;47.25;;;;;;;24.82;80.89;100893.69;4988186;28;20061;-72
2024/03/31 11:40:41;;;;;;;56.38;52.58;;;;;;;27.44;50.71;100889.66;4987213;28;20476;-76
2024/03/31 11:43:08;;;;;;;48.83;45.35;;;;;;;22.98;100.00;100887.84;4999164;28;20058;-76
2024/03/31 11:45:36;;;;;;;52.20;48.50;;;;;;;27.15;50.76;100882.81;4986135;28;20042;-79
2024/03/31 11:48:04;;;;;;;51.05;47.45;;;;;;;26.29;59.99;100889.22;5005816;28;20099;-78
2024/03/31 11:50:33;;;;;;;52.78;49.08;;;;;;;29.34;45.13;100883.41;4997500;28;20056;-77
2024/03/31 11:52:59;;;;;;;53.63;49.47;;;;;;;28.82;44.08;100875.34;4999052;28;20047;-77
2024/03/31 11:55:26;;;;;;;60.88;56.88;;;;;;;30.50;39.31;100862.88;4999110;28;20076;-78
2024/03/31 11:57:54;;;;;;;61.03;56.92;;;;;;;30.29;39.80;100870.31;4994714;28;20111;-78
2024/03/31 12:00:23;;;;;;;65.03;60.83;;;;;;;29.41;42.63;100866.47;4991182;28;20441;-77
2024/03/31 12:02:49;;;;;;;60.58;56.58;;;;;;;26.95;53.31;100862.31;4999586;28;20057;-77
2024/03/31 12:05:21;;;;;;;69.88;65.28;;;;;;;28.97;42.91;100858.44;4997559;28;20050;-78
2024/03/31 12:07:54;;;;;;;62.72;58.53;;;;;;;29.69;40.45;100857.84;5041848;28;20107;-77
2024/03/31 12:10:27;;;;;;;62.47;58.38;;;;;;;30.19;37.99;100857.78;5004617;28;20046;-77
2024/03/31 12:12:53;;;;;;;53.95;50.15;;;;;;;29.69;43.80;100855.91;5004918;28;20053;-78
2024/03/31 12:15:25;;;;;;;54.00;50.25;;;;;;;29.29;42.07;100856.25;5086646;28;20502;-79
2024/03/31 12:17:57;;;;;;;53.73;49.93;;;;;;;30.50;36.50;100843.69;5023841;28;20573;-77
2024/03/31 12:20:26;;;;;;;43.55;40.15;;;;;;;30.35;36.28;100839.63;4991948;28;20293;-77
2024/03/31 12:22:53;;;;;;;71.68;67.10;;;;;;;30.16;36.35;100850.22;5002138;28;20062;-77
2024/03/31 12:25:20;;;;;;;42.45;39.25;;;;;;;30.35;35.79;100847.06;4990987;28;20050;-78
2024/03/31 12:27:47;;;;;;;39.72;36.53;;;;;;;29.84;36.51;100835.34;4992275;28;20089;-77
2024/03/31 12:30:14;;;;;;;45.58;42.22;;;;;;;27.15;48.98;100841.91;5003666;28;20104;-77
2024/03/31 12:32:40;;;;;;;55.28;51.58;;;;;;;27.98;41.51;100843.91;4993904;28;20050;-78
2024/03/31 12:35:08;;;;;;;56.55;52.65;;;;;;;28.07;43.76;100833.78;4986533;28;20054;-77
2024/03/31 12:37:38;;;;;;;36.10;33.20;;;;;;;26.76;51.06;100839.94;4986831;28;20058;-77
2024/03/31 12:40:07;;;;;;;38.85;35.85;;;;;;;28.01;41.57;100840.53;5000307;28;20053;-77
2024/03/31 12:42:38;;;;;;;37.28;34.28;;;;;;;28.39;40.98;100837.16;5004143;28;20133;-77
2024/03/31 12:45:06;;;;;;;37.30;33.85;;;;;;;27.97;46.95;100829.47;4997853;28;20050;-77
2024/03/31 12:47:33;;;;;;;40.65;37.45;;;;;;;25.70;54.25;100825.75;5000913;28;20057;-77
2024/03/31 12:50:00;;;;;;;56.10;52.20;;;;;;;27.56;41.24;100819.72;5004185;28;20700;-77
2024/03/31 12:52:28;;;;;;;34.63;31.73;;;;;;;28.43;38.26;100816.28;5000858;28;20058;-76
2024/03/31 12:54:56;;;;;;;36.40;33.40;;;;;;;28.18;46.45;100817.91;5002760;28;20054;-77